Hlavní strana
METAR-TAF:

METAR-TAF

Letiště :

Mezinárodní letiště Vancouver

Vancouver, Britská Kolumbie, Kanada

zeměpisná šířka: 49-11N, zeměpisná délka: 123-10W, výška: 3 m

Aktuální stav počasí

Zpráva byla vytvořena před 20 minutami, v 22:00 UTC
Západojihozápadní vítr 10 kt
Teplota 11°C
Vlhkost vzduchu 58%
Tlak 1024 hPa
Viditelnost: 32.2 km
Skoro jasno ve výšce 4000 ft

METAR: CYVR 072200Z 25010KT 20SM FEW040 11/03 A3025 RMK SC1 SC TR SLP245

Čas: 15:20 (22:20 UTC)

Předpověď počasí

Zpráva byla vytvořena před 1 hodinou a 42 minutami, v 20:38 UTC
Předpověď platná od 07 v 21 UTC do 08 v 24 UTC
Západní vítr 15 kt
Viditelnost: 10 km
Skoro jasno ve výšce 3000 ft
Změna
od 08 v 00 UTC do 08 v 02 UTC
Západní vítr 8 kt
Změna
od 08 v 06 UTC do 08 v 08 UTC
vítr z různých směrů 3 kt
Od 08 v 1700 UTC
Západní vítr 12 kt
Viditelnost: 10 km
Skoro jasno ve výšce 15000 ft

TAF: CYVR 072038Z 0721/0824 27015KT P6SM FEW030 BECMG 0800/0802 28008KT BECMG 0806/0808 VRB03KT FM081700 28012KT P6SM FEW150 RMK NXT FCST BY 080000Z

Stav a předpovědi počasí z více než 4 000 letišť (zprávy METAR a TAF).

Červené a žluté tečky na mapě představují dostupné meteorologické stanice.

Když kurzor umístíte na tečku, zobrazí se název stanice.

Pak kliknutím zobrazíte stav a předpověď počasí.

Chcete-li změnit mapu, kliknutím na zelené tlačítko se znaménkem +mapu přiblížíte, kliknutím na zelené tlačítko se znaménkem – mapu oddálíte a kliknutím na zelené šipky přejdete na sousední mapy.


METAR-TAF: